createdAt,value
2022-11-02T00:02:07.376Z,78.73
2022-11-02T00:04:33.876Z,78.35
2022-11-02T00:07:00.275Z,78.27
2022-11-02T00:09:26.702Z,78.59
2022-11-02T00:11:53.114Z,78.53
2022-11-02T00:14:19.512Z,78.65
2022-11-02T00:16:45.964Z,78.75
2022-11-02T00:19:12.487Z,78.78
2022-11-02T00:21:39.019Z,78.80
2022-11-02T00:24:06.002Z,78.79
2022-11-02T00:26:33.531Z,78.49
2022-11-02T00:29:00.086Z,78.95
2022-11-02T00:31:26.522Z,78.73
2022-11-02T00:33:52.982Z,78.96
2022-11-02T00:36:19.429Z,78.76
2022-11-02T00:38:45.816Z,78.52
2022-11-02T00:41:12.857Z,78.63
2022-11-02T00:43:39.246Z,78.68
2022-11-02T00:46:05.721Z,78.78
2022-11-02T00:48:32.128Z,78.99
2022-11-02T00:50:58.540Z,78.79
2022-11-02T00:53:25.493Z,78.86
2022-11-02T00:55:53.884Z,78.74
2022-11-02T00:58:20.898Z,79.01
2022-11-02T01:00:47.318Z,78.54
2022-11-02T01:03:13.750Z,78.81
2022-11-02T01:05:40.200Z,79.04
2022-11-02T01:08:06.952Z,79.61
2022-11-02T01:10:33.610Z,79.63
2022-11-02T01:13:00.955Z,79.52
2022-11-02T01:15:27.370Z,79.77
2022-11-02T01:17:53.759Z,79.81
2022-11-02T01:20:20.519Z,79.89
2022-11-02T01:22:46.914Z,79.88
2022-11-02T01:25:13.558Z,80.16
2022-11-02T01:27:40.037Z,80.26
2022-11-02T01:30:06.838Z,80.07
2022-11-02T01:32:33.362Z,80.21
2022-11-02T01:34:59.860Z,80.40
2022-11-02T01:37:26.253Z,80.62
2022-11-02T01:39:52.674Z,80.37
2022-11-02T01:42:24.562Z,80.10
2022-11-02T01:44:51.336Z,80.35
2022-11-02T01:47:31.496Z,80.24
2022-11-02T01:50:03.985Z,80.38
2022-11-02T01:52:37.842Z,80.81
2022-11-02T01:55:17.304Z,80.87
2022-11-02T01:57:47.122Z,80.85
2022-11-02T02:00:15.662Z,80.91
2022-11-02T02:03:03.700Z,81.26
2022-11-02T02:05:31.022Z,81.21
2022-11-02T02:07:58.029Z,81.70
2022-11-02T02:10:24.492Z,81.42
2022-11-02T02:12:50.920Z,81.42
2022-11-02T02:15:17.473Z,81.38
2022-11-02T02:17:52.344Z,81.72
2022-11-02T02:20:48.427Z,81.69
2022-11-02T02:23:54.998Z,81.85
2022-11-02T02:26:40.620Z,82.01
2022-11-02T02:29:19.282Z,82.13
2022-11-02T02:32:00.434Z,81.77
2022-11-02T02:34:34.002Z,82.03
2022-11-02T02:37:10.882Z,81.74
2022-11-02T02:39:48.360Z,82.09
2022-11-02T02:42:24.915Z,82.06
2022-11-02T02:45:05.402Z,82.13
2022-11-02T02:47:33.664Z,81.87
2022-11-02T02:50:17.356Z,82.09
2022-11-02T02:52:45.903Z,81.73
2022-11-02T02:55:22.618Z,81.33
2022-11-02T02:57:49.748Z,81.28
2022-11-02T03:00:17.713Z,81.18
2022-11-02T03:03:00.809Z,80.63
2022-11-02T03:05:33.836Z,80.38
2022-11-02T03:08:09.626Z,80.51
2022-11-02T03:10:48.979Z,81.27
2022-11-02T03:13:56.768Z,81.67
2022-11-02T03:16:38.382Z,82.45
2022-11-02T03:19:33.111Z,82.89
2022-11-02T03:22:02.998Z,83.20
2022-11-02T03:24:47.455Z,83.15
2022-11-02T03:27:21.482Z,83.13
2022-11-02T03:29:58.983Z,83.46
2022-11-02T03:32:30.862Z,83.54
2022-11-02T03:34:59.221Z,83.59
2022-11-02T03:37:39.784Z,83.34
2022-11-02T03:40:13.039Z,83.81
2022-11-02T03:42:40.415Z,83.78
2022-11-02T03:45:11.353Z,83.52
2022-11-02T03:47:39.488Z,83.69
2022-11-02T03:50:08.167Z,83.93
2022-11-02T03:52:37.153Z,83.87
2022-11-02T03:55:09.483Z,83.99
2022-11-02T03:57:41.716Z,84.29
2022-11-02T04:00:11.044Z,84.25
2022-11-02T04:02:39.160Z,84.16
2022-11-02T04:05:05.860Z,84.17
2022-11-02T04:07:58.343Z,84.38
2022-11-02T04:10:26.002Z,84.14
2022-11-02T04:13:11.038Z,83.62
2022-11-02T04:15:37.583Z,83.96
2022-11-02T04:18:22.702Z,83.78
2022-11-02T04:20:52.583Z,84.20
2022-11-02T04:23:38.132Z,83.97
2022-11-02T04:26:05.604Z,83.87
2022-11-02T04:28:32.024Z,84.13
2022-11-02T04:30:59.864Z,84.06
2022-11-02T04:33:32.778Z,84.02
2022-11-02T04:36:04.318Z,83.75
2022-11-02T04:38:43.028Z,83.70
2022-11-02T04:41:33.601Z,83.61
2022-11-02T04:44:00.427Z,83.40
2022-11-02T04:46:28.911Z,83.54
2022-11-02T04:48:56.078Z,83.82
2022-11-02T04:51:23.311Z,83.71
2022-11-02T04:53:50.323Z,83.78
2022-11-02T04:56:16.713Z,83.74
2022-11-02T04:58:43.120Z,84.58
2022-11-02T05:01:13.276Z,84.68
2022-11-02T05:03:39.768Z,85.27
2022-11-02T05:06:06.392Z,85.77
2022-11-02T05:08:32.833Z,86.09
2022-11-02T05:10:59.611Z,86.32
2022-11-02T05:13:26.734Z,86.67
2022-11-02T05:15:56.673Z,86.14
2022-11-02T05:18:23.619Z,86.44
2022-11-02T05:20:52.153Z,86.42
2022-11-02T05:23:19.470Z,86.24
2022-11-02T05:25:56.505Z,86.27
2022-11-02T05:28:23.522Z,86.57
2022-11-02T05:30:50.196Z,86.38
2022-11-02T05:33:16.964Z,86.44
2022-11-02T05:35:44.525Z,86.35
2022-11-02T05:38:12.439Z,86.43
2022-11-02T05:40:40.810Z,86.69
2022-11-02T05:43:10.717Z,87.02
2022-11-02T05:45:38.232Z,87.43
2022-11-02T05:48:06.706Z,87.07
2022-11-02T05:50:33.544Z,88.00
2022-11-02T05:52:59.938Z,87.81
2022-11-02T05:55:26.570Z,87.59
2022-11-02T05:57:55.470Z,87.67
2022-11-02T06:00:22.709Z,87.63
2022-11-02T06:02:49.177Z,87.59
2022-11-02T06:05:15.749Z,87.55
2022-11-02T06:07:42.202Z,87.61
2022-11-02T06:10:08.684Z,87.64
2022-11-02T06:12:35.109Z,88.70
2022-11-02T06:15:01.513Z,88.87
2022-11-02T06:17:27.955Z,88.90
2022-11-02T06:19:54.373Z,88.96
2022-11-02T06:22:20.806Z,89.04
2022-11-02T06:24:47.209Z,88.78
2022-11-02T06:27:13.608Z,88.86
2022-11-02T06:29:40.025Z,89.27
2022-11-02T06:32:06.562Z,88.81
2022-11-02T06:34:32.990Z,88.39
2022-11-02T06:36:59.410Z,88.26
2022-11-02T06:39:25.920Z,88.10
2022-11-02T06:41:52.390Z,87.85
2022-11-02T06:44:18.781Z,87.48
2022-11-02T06:46:45.214Z,87.21
2022-11-02T06:49:11.668Z,87.03
2022-11-02T06:51:38.088Z,86.80
2022-11-02T06:54:08.441Z,86.95
2022-11-02T06:56:35.146Z,86.56
2022-11-02T06:59:01.583Z,86.56
2022-11-02T07:01:28.115Z,86.77
2022-11-02T07:03:54.701Z,86.25
2022-11-02T07:06:21.113Z,86.34
2022-11-02T07:08:47.550Z,86.37
2022-11-02T07:11:16.074Z,86.52
2022-11-02T07:13:42.780Z,86.26
2022-11-02T07:16:09.242Z,85.53
2022-11-02T07:18:35.720Z,85.51
2022-11-02T07:21:02.568Z,85.24
2022-11-02T07:23:29.080Z,84.85
2022-11-02T07:25:55.537Z,84.44
2022-11-02T07:28:21.978Z,83.39
2022-11-02T07:30:48.775Z,83.61
2022-11-02T07:33:15.235Z,82.94
2022-11-02T07:35:42.429Z,82.98
2022-11-02T07:38:09.791Z,82.11
2022-11-02T07:40:36.649Z,82.24
2022-11-02T07:43:03.599Z,81.89
2022-11-02T07:45:30.414Z,81.72
2022-11-02T07:47:56.878Z,81.55
2022-11-02T07:50:24.639Z,81.79
2022-11-02T07:52:52.667Z,81.67
2022-11-02T07:55:21.220Z,81.51
2022-11-02T07:57:58.493Z,81.98
2022-11-02T08:00:26.446Z,85.80
2022-11-02T08:02:56.860Z,84.10
2022-11-02T08:05:23.608Z,81.51
2022-11-02T08:08:20.319Z,79.92
2022-11-02T08:10:48.160Z,79.82
2022-11-02T08:13:22.618Z,79.53
2022-11-02T08:15:53.670Z,79.69
2022-11-02T08:18:25.261Z,79.64
2022-11-02T08:20:52.133Z,79.49
2022-11-02T08:23:20.749Z,79.61
2022-11-02T08:25:48.151Z,79.40
2022-11-02T08:28:23.383Z,79.38
2022-11-02T08:30:51.009Z,79.29
2022-11-02T08:33:18.472Z,79.29
2022-11-02T08:35:45.986Z,79.71
2022-11-02T08:38:13.916Z,79.67
2022-11-02T08:40:41.673Z,79.80
2022-11-02T08:43:09.902Z,79.40
2022-11-02T08:46:12.692Z,79.40
2022-11-02T08:48:25.311Z,78.91
2022-11-02T08:50:51.755Z,79.23
2022-11-02T08:53:18.377Z,78.57
2022-11-02T08:55:44.819Z,78.67
2022-11-02T08:58:11.280Z,78.62
2022-11-02T09:00:38.773Z,78.98
2022-11-02T09:03:06.664Z,77.42
2022-11-02T09:05:40.989Z,77.25
2022-11-02T09:08:10.326Z,77.00
2022-11-02T09:10:37.138Z,77.42
2022-11-02T09:13:06.225Z,77.28
2022-11-02T09:15:34.879Z,76.50
2022-11-02T09:18:01.382Z,76.34
2022-11-02T09:20:28.290Z,75.49
2022-11-02T09:22:54.773Z,75.80
2022-11-02T09:25:21.163Z,75.74
2022-11-02T09:27:55.651Z,75.52
2022-11-02T09:30:22.869Z,74.92
2022-11-02T09:32:57.338Z,74.93
2022-11-02T09:35:24.095Z,73.55
2022-11-02T09:37:51.199Z,74.09
2022-11-02T09:40:23.017Z,73.76
2022-11-02T09:43:08.574Z,72.62
2022-11-02T09:45:39.884Z,71.91
2022-11-02T09:48:19.657Z,72.82
2022-11-02T09:50:59.364Z,71.90
2022-11-02T09:53:37.992Z,70.84
2022-11-02T09:56:05.145Z,70.23
2022-11-02T09:58:37.286Z,68.77
2022-11-02T10:01:28.527Z,68.20
2022-11-02T10:04:03.851Z,67.81
2022-11-02T10:06:31.507Z,66.79
2022-11-02T10:09:02.337Z,64.54
2022-11-02T10:14:28.900Z,63.05
2022-11-02T10:16:59.493Z,62.88
2022-11-02T10:19:30.251Z,61.60
2022-11-02T10:21:58.257Z,62.34
2022-11-02T10:24:48.971Z,62.84
2022-11-02T10:27:29.063Z,61.01
2022-11-02T10:30:13.675Z,61.35
2022-11-02T10:35:51.360Z,60.76
2022-11-02T10:38:36.400Z,60.56
2022-11-02T10:41:50.665Z,59.90
2022-11-02T10:44:44.183Z,58.78
2022-11-02T10:47:20.375Z,58.15
2022-11-02T10:49:54.269Z,58.53
2022-11-02T10:52:20.749Z,58.30
2022-11-02T10:54:50.284Z,58.09
2022-11-02T10:57:21.925Z,57.74
2022-11-02T11:00:26.123Z,57.53
2022-11-02T11:03:20.420Z,56.93
2022-11-02T11:05:50.180Z,57.19
2022-11-02T11:08:29.593Z,55.88
2022-11-02T11:11:18.562Z,55.73
2022-11-02T11:16:44.792Z,55.23
2022-11-02T11:22:45.769Z,55.49
2022-11-02T11:25:12.086Z,54.80
2022-11-02T11:27:55.520Z,55.10
2022-11-02T11:33:20.982Z,54.83
2022-11-02T11:35:49.276Z,54.80
2022-11-02T11:38:18.232Z,55.78
2022-11-02T11:40:47.248Z,56.31
2022-11-02T11:43:16.126Z,56.17
2022-11-02T11:45:54.604Z,56.91
2022-11-02T11:48:41.552Z,54.69
2022-11-02T11:51:25.542Z,52.63
2022-11-02T11:54:19.069Z,51.74
2022-11-02T11:56:47.248Z,52.49
2022-11-02T11:59:25.535Z,52.48
2022-11-02T12:01:58.056Z,52.51
2022-11-02T12:04:42.825Z,53.03
2022-11-02T12:07:15.143Z,52.98
2022-11-02T12:10:05.961Z,52.86
2022-11-02T12:12:56.919Z,51.70
2022-11-02T12:15:33.840Z,52.06
2022-11-02T12:18:24.835Z,51.43
2022-11-02T12:20:51.903Z,51.14
2022-11-02T12:23:41.211Z,49.75
2022-11-02T12:26:29.269Z,49.63
2022-11-02T12:29:23.043Z,48.44
2022-11-02T12:32:05.343Z,47.50
2022-11-02T12:35:30.562Z,47.83
2022-11-02T12:38:04.814Z,48.05
2022-11-02T12:40:56.108Z,47.81
2022-11-02T12:43:38.084Z,48.01
2022-11-02T12:46:05.403Z,48.11
2022-11-02T12:49:03.566Z,48.52
2022-11-02T12:51:39.327Z,49.29
2022-11-02T12:54:11.755Z,49.68
2022-11-02T12:56:51.056Z,49.62
2022-11-02T12:59:27.238Z,49.39
2022-11-02T13:02:13.759Z,49.73
2022-11-02T13:04:53.339Z,50.58
2022-11-02T13:07:28.145Z,50.69
2022-11-02T13:10:20.582Z,49.41
2022-11-02T13:12:53.583Z,49.73
2022-11-02T13:15:22.743Z,49.95
2022-11-02T13:17:56.367Z,49.92
2022-11-02T13:20:38.032Z,49.74
2022-11-02T13:23:07.443Z,49.95
2022-11-02T13:25:41.729Z,50.10
2022-11-02T13:28:34.319Z,49.94
2022-11-02T13:31:02.030Z,47.94
2022-11-02T13:33:41.711Z,48.19
2022-11-02T13:36:08.863Z,48.00
2022-11-02T13:38:40.258Z,47.82
2022-11-02T13:41:35.753Z,48.33
2022-11-02T13:44:39.787Z,48.41
2022-11-02T13:47:33.526Z,48.46
2022-11-02T13:50:01.809Z,48.13
2022-11-02T13:52:38.647Z,48.12
2022-11-02T13:55:05.799Z,48.88
2022-11-02T13:57:41.307Z,48.59
2022-11-02T14:00:39.617Z,48.63
2022-11-02T14:03:23.244Z,50.22
2022-11-02T14:05:58.603Z,47.80
2022-11-02T14:08:34.084Z,46.33
2022-11-02T14:11:14.518Z,46.56
2022-11-02T14:13:59.097Z,47.21
2022-11-02T14:16:42.873Z,47.83
2022-11-02T14:19:20.301Z,47.47
2022-11-02T14:21:59.341Z,46.99
2022-11-02T14:24:34.983Z,46.89
2022-11-02T14:27:02.380Z,47.13
2022-11-02T14:29:52.986Z,47.48
2022-11-02T14:32:30.787Z,47.51
2022-11-02T14:35:24.334Z,48.19
2022-11-02T14:38:19.111Z,48.19
2022-11-02T14:40:49.239Z,48.18
2022-11-02T14:43:40.639Z,48.10
2022-11-02T14:46:35.551Z,48.62
2022-11-02T14:49:04.215Z,50.48
2022-11-02T14:51:37.358Z,49.47
2022-11-02T14:54:15.922Z,49.69
2022-11-02T14:57:02.670Z,49.62
2022-11-02T14:59:33.195Z,50.11
2022-11-02T15:02:12.448Z,50.27
2022-11-02T15:04:48.926Z,50.23
2022-11-02T15:07:21.047Z,50.15
2022-11-02T15:09:56.373Z,50.94
2022-11-02T15:12:39.617Z,51.13
2022-11-02T15:15:29.530Z,51.38
2022-11-02T15:17:55.858Z,51.25
2022-11-02T15:20:31.036Z,51.50
2022-11-02T15:23:30.513Z,51.81
2022-11-02T15:25:59.811Z,52.25
2022-11-02T15:28:29.774Z,52.35
2022-11-02T15:30:58.355Z,52.44
2022-11-02T15:33:38.971Z,52.63
2022-11-02T15:36:08.736Z,52.98
2022-11-02T15:38:39.573Z,53.71
2022-11-02T15:41:28.217Z,53.52
2022-11-02T15:44:07.129Z,53.71
2022-11-02T15:46:37.218Z,53.98
2022-11-02T15:49:19.865Z,53.95
2022-11-02T15:52:00.019Z,54.63
2022-11-02T15:54:29.688Z,54.74
2022-11-02T15:57:17.711Z,54.73
2022-11-02T16:00:02.219Z,54.81
2022-11-02T16:02:32.351Z,55.45
2022-11-02T16:05:00.942Z,55.31
2022-11-02T16:07:38.140Z,55.33
2022-11-02T16:10:23.705Z,55.37
2022-11-02T16:13:19.227Z,55.62
2022-11-02T16:15:48.571Z,55.67
2022-11-02T16:18:26.441Z,55.87
2022-11-02T16:20:55.126Z,56.00
2022-11-02T16:23:26.130Z,56.73
2022-11-02T16:25:54.333Z,56.82
2022-11-02T16:28:34.813Z,57.10
2022-11-02T16:31:18.125Z,57.29
2022-11-02T16:33:48.261Z,57.50
2022-11-02T16:36:17.686Z,57.58
2022-11-02T16:38:59.116Z,57.53
2022-11-02T16:41:31.340Z,57.80
2022-11-02T16:44:00.477Z,58.24
2022-11-02T16:46:32.307Z,58.78
2022-11-02T16:49:11.939Z,59.12
2022-11-02T16:51:38.461Z,59.05
2022-11-02T16:54:27.701Z,59.85
2022-11-02T16:56:56.077Z,59.26
2022-11-02T16:59:23.759Z,59.44
2022-11-02T17:01:51.458Z,59.92
2022-11-02T17:04:20.869Z,60.15
2022-11-02T17:06:48.445Z,60.44
2022-11-02T17:09:25.394Z,61.28
2022-11-02T17:11:53.483Z,61.34
2022-11-02T17:14:21.268Z,60.95
2022-11-02T17:17:00.696Z,61.96
2022-11-02T17:19:39.429Z,62.09
2022-11-02T17:22:35.742Z,62.22
2022-11-02T17:25:11.245Z,61.96
2022-11-02T17:27:42.266Z,61.98
2022-11-02T17:30:34.982Z,61.90
2022-11-02T17:33:14.475Z,61.72
2022-11-02T17:35:47.861Z,61.80
2022-11-02T17:38:15.462Z,62.28
2022-11-02T17:40:42.237Z,61.96
2022-11-02T17:43:09.056Z,62.09
2022-11-02T17:45:39.888Z,62.01
2022-11-02T17:48:07.611Z,62.44
2022-11-02T17:50:35.548Z,62.67
2022-11-02T17:53:02.714Z,63.03
2022-11-02T17:55:31.742Z,63.44
2022-11-02T17:57:58.611Z,64.88
2022-11-02T18:00:27.181Z,64.79
2022-11-02T18:02:55.875Z,64.83
2022-11-02T18:05:35.520Z,65.13
2022-11-02T18:08:03.041Z,65.11
2022-11-02T18:10:50.761Z,65.14
2022-11-02T18:13:22.834Z,65.96
2022-11-02T18:15:49.707Z,65.49
2022-11-02T18:18:17.128Z,65.38
2022-11-02T18:20:43.606Z,66.07
2022-11-02T18:23:14.869Z,66.11
2022-11-02T18:25:41.351Z,66.19
2022-11-02T18:28:08.023Z,66.18
2022-11-02T18:30:34.694Z,65.74
2022-11-02T18:33:01.624Z,66.14
2022-11-02T18:35:28.045Z,66.23
2022-11-02T18:37:54.462Z,66.39
2022-11-02T18:40:22.042Z,65.85
2022-11-02T18:42:48.467Z,65.86
2022-11-02T18:45:15.885Z,66.04
2022-11-02T18:47:42.587Z,66.23
2022-11-02T18:50:11.993Z,66.35
2022-11-02T18:52:38.528Z,66.14
2022-11-02T18:55:05.475Z,65.96
2022-11-02T18:57:32.708Z,65.93
2022-11-02T19:00:02.371Z,66.12
2022-11-02T19:02:29.150Z,66.53
2022-11-02T19:04:55.756Z,66.23
2022-11-02T19:07:40.828Z,66.39
2022-11-02T19:10:07.545Z,66.61
2022-11-02T19:12:33.961Z,66.80
2022-11-02T19:15:00.414Z,67.70
2022-11-02T19:17:27.131Z,67.27
2022-11-02T19:19:53.897Z,67.52
2022-11-02T19:22:22.440Z,67.32
2022-11-02T19:24:49.222Z,67.38
2022-11-02T19:27:25.493Z,67.92
2022-11-02T19:29:52.199Z,68.12
2022-11-02T19:32:19.249Z,67.93
2022-11-02T19:34:45.885Z,67.93
2022-11-02T19:37:12.306Z,67.97
2022-11-02T19:39:38.717Z,67.87
2022-11-02T19:42:07.194Z,67.85
2022-11-02T19:44:38.200Z,67.41
2022-11-02T19:47:08.603Z,67.22
2022-11-02T19:49:35.033Z,67.62
2022-11-02T19:52:01.460Z,67.75
2022-11-02T19:54:27.869Z,68.18
2022-11-02T19:56:54.298Z,67.96
2022-11-02T19:59:20.775Z,68.02
2022-11-02T20:01:48.226Z,67.63
2022-11-02T20:04:14.647Z,67.45
2022-11-02T20:06:43.024Z,67.57
2022-11-02T20:09:17.674Z,67.47
2022-11-02T20:11:45.421Z,67.61
2022-11-02T20:14:13.533Z,67.70
2022-11-02T20:16:40.300Z,67.44
2022-11-02T20:19:07.039Z,67.53
2022-11-02T20:21:39.553Z,67.34
2022-11-02T20:24:09.336Z,67.38
2022-11-02T20:26:37.959Z,67.35
2022-11-02T20:29:05.373Z,67.58
2022-11-02T20:31:34.160Z,67.60
2022-11-02T20:34:01.555Z,67.85
2022-11-02T20:36:28.209Z,68.37
2022-11-02T20:38:56.128Z,67.91
2022-11-02T20:41:23.889Z,68.19
2022-11-02T20:43:52.185Z,68.47
2022-11-02T20:46:41.436Z,68.92
2022-11-02T20:49:21.054Z,69.27
2022-11-02T20:51:55.354Z,69.34
2022-11-02T20:54:22.344Z,69.45
2022-11-02T20:56:49.478Z,69.62
2022-11-02T20:59:15.983Z,69.77
2022-11-02T21:01:42.738Z,69.49
2022-11-02T21:04:09.310Z,69.82
2022-11-02T21:06:35.816Z,70.01
2022-11-02T21:09:09.025Z,70.18
2022-11-02T21:11:56.927Z,70.53
2022-11-02T21:14:23.438Z,70.97
2022-11-02T21:16:49.985Z,71.22
2022-11-02T21:19:16.391Z,71.45
2022-11-02T21:21:42.797Z,71.48
2022-11-02T21:24:09.662Z,71.43
2022-11-02T21:26:36.116Z,71.12
2022-11-02T21:29:02.535Z,70.93
2022-11-02T21:31:28.933Z,70.72
2022-11-02T21:33:55.365Z,70.98
2022-11-02T21:36:21.790Z,70.70
2022-11-02T21:38:51.088Z,70.49
2022-11-02T21:41:22.326Z,70.45
2022-11-02T21:43:51.971Z,70.37
2022-11-02T21:46:19.668Z,71.21
2022-11-02T21:48:46.129Z,71.59
2022-11-02T21:51:14.638Z,71.48
2022-11-02T21:53:43.378Z,72.10
2022-11-02T21:56:18.396Z,72.15
2022-11-02T21:58:46.475Z,72.15
2022-11-02T22:01:35.871Z,71.77
2022-11-02T22:04:02.916Z,72.91
2022-11-02T22:06:31.468Z,73.22
2022-11-02T22:08:59.263Z,73.63
2022-11-02T22:11:28.600Z,73.54
2022-11-02T22:13:57.150Z,74.16
2022-11-02T22:16:31.585Z,74.07
2022-11-02T22:18:59.902Z,74.35
2022-11-02T22:21:28.508Z,74.63
2022-11-02T22:23:56.404Z,75.02
2022-11-02T22:26:25.185Z,74.75
2022-11-02T22:28:52.004Z,75.01
2022-11-02T22:31:26.966Z,75.08
2022-11-02T22:33:55.205Z,75.31
2022-11-02T22:36:23.848Z,75.56
2022-11-02T22:38:56.204Z,75.32
2022-11-02T22:41:47.539Z,75.44
2022-11-02T22:44:15.814Z,75.19
2022-11-02T22:46:44.619Z,75.28
2022-11-02T22:49:12.428Z,75.03
2022-11-02T22:51:43.808Z,75.24
2022-11-02T22:54:13.556Z,74.72
2022-11-02T22:56:39.990Z,75.22
2022-11-02T22:59:06.525Z,75.81
2022-11-02T23:01:33.968Z,75.64
2022-11-02T23:04:01.267Z,76.23
2022-11-02T23:06:28.107Z,76.15
2022-11-02T23:08:56.267Z,76.54
2022-11-02T23:11:25.700Z,76.68
2022-11-02T23:14:04.251Z,76.65
2022-11-02T23:16:40.097Z,76.60
2022-11-02T23:19:29.138Z,76.87
2022-11-02T23:22:28.294Z,77.29
2022-11-02T23:25:12.316Z,77.10
2022-11-02T23:28:01.891Z,77.43
2022-11-02T23:30:48.601Z,77.29
2022-11-02T23:33:15.537Z,77.44
2022-11-02T23:36:01.049Z,77.12
2022-11-02T23:38:50.386Z,76.69
2022-11-02T23:41:18.129Z,76.75
2022-11-02T23:43:44.538Z,76.23
2022-11-02T23:46:10.959Z,76.90
2022-11-02T23:48:37.382Z,77.06
2022-11-02T23:51:22.810Z,77.42
2022-11-02T23:54:07.881Z,78.04
2022-11-02T23:56:43.456Z,78.78
2022-11-02T23:59:13.951Z,78.96
